Flight Briefing

Flight
SQS126
Departure Arrival
Sentani International (WAJJ)
Click to view NOTAMS
Mulia (WAJM)
Click to view NOTAMS
Departure Time Arrival Time
09:00 10.30
Aircraft Distance
C208B 167.872
Departure METAR Arrival METAR
WAJJ 181000Z 08004KT 9999 SCT012 29/22 Q1009 NOSIG
Route



Notes
Mulia in X10 is listed as WABQ
Additional Data
View recent IFR Routes data



Data Courtesy of FlightAware